Time;durP1;ratioP1;P1;durP2;ratioP2;P2;SDS_P1;SDS_P2;PMS_P1;PMS_P2;Temp;Humidity;BMP_temperature;BMP_pressure;BME280_temperature;BME280_humidity;BME280_pressure;Samples;Min_cycle;Max_cycle;Signal;HPM_P1;HPM_P2
2022/10/02 00:02:54;;;;;;;1.20;0.70;;;17.00;75.60;;;;;;5053830;28;20242;-66
2022/10/02 00:05:43;;;;;;;1.20;0.80;;;17.00;75.60;;;;;;5044777;28;20230;-67
2022/10/02 00:08:24;;;;;;;0.90;0.70;;;17.00;75.60;;;;;;5036821;28;20214;-67
2022/10/02 00:10:56;;;;;;;0.82;0.75;;;17.10;75.70;;;;;;5036761;28;20638;-67
2022/10/02 00:13:37;;;;;;;3.25;0.90;;;17.10;75.70;;;;;;5053206;28;20236;-67
2022/10/02 00:16:22;;;;;;;0.77;0.70;;;17.00;75.60;;;;;;5036948;28;20171;-67
2022/10/02 00:18:49;;;;;;;1.17;0.68;;;17.10;75.70;;;;;;5036663;28;20213;-66
2022/10/02 00:21:37;;;;;;;0.90;0.60;;;17.10;75.70;;;;;;5054229;28;20214;-66
2022/10/02 00:24:10;;;;;;;0.60;0.60;;;17.10;75.70;;;;;;5053073;28;20193;-67
2022/10/02 00:27:22;;;;;;;0.85;0.60;;;17.10;75.80;;;;;;5054190;28;20175;-67
2022/10/02 00:29:57;;;;;;;1.27;0.70;;;17.00;75.80;;;;;;5054164;28;20654;-67
2022/10/02 00:32:49;;;;;;;1.23;0.68;;;17.00;76.50;;;;;;5053282;28;20201;-66
2022/10/02 00:36:22;;;;;;;0.95;0.80;;;17.10;75.90;;;;;;5013953;28;20219;-66
2022/10/02 00:39:09;;;;;;;1.13;0.70;;;17.10;75.80;;;;;;5001976;28;20217;-67
2022/10/02 00:42:02;;;;;;;1.20;0.70;;;17.10;75.90;;;;;;5052738;28;20255;-67
2022/10/02 00:44:58;;;;;;;0.82;0.60;;;17.00;75.80;;;;;;5053801;28;20213;-67
2022/10/02 00:47:48;;;;;;;1.20;0.90;;;17.10;75.90;;;;;;5035935;28;20220;-67
2022/10/02 00:51:12;;;;;;;0.55;0.50;;;17.10;75.90;;;;;;5036276;28;20221;-67
2022/10/02 00:54:06;;;;;;;0.90;0.60;;;17.00;75.90;;;;;;5025786;28;20269;-67
2022/10/02 00:56:44;;;;;;;1.65;0.57;;;17.00;75.90;;;;;;5052443;28;20193;-66
2022/10/02 00:59:38;;;;;;;2.17;0.70;;;17.10;76.00;;;;;;5035976;28;20213;-67
2022/10/02 01:02:44;;;;;;;1.38;0.77;;;17.00;75.80;;;;;;5034840;28;20265;-67
2022/10/02 01:05:10;;;;;;;1.50;0.60;;;17.00;75.80;;;;;;5052361;28;20171;-67
2022/10/02 01:07:41;;;;;;;0.82;0.70;;;17.10;76.00;;;;;;5052417;28;20219;-67
2022/10/02 01:10:09;;;;;;;1.77;0.75;;;17.00;75.90;;;;;;5052230;28;20171;-66
2022/10/02 01:12:36;;;;;;;1.17;0.77;;;17.00;75.90;;;;;;5052375;28;20182;-67
2022/10/02 01:15:17;;;;;;;1.23;0.75;;;17.10;76.00;;;;;;5068841;28;20622;-67
2022/10/02 01:17:46;;;;;;;0.90;0.80;;;17.10;76.00;;;;;;5052277;28;20202;-67
2022/10/02 01:20:18;;;;;;;0.68;0.68;;;17.10;76.00;;;;;;5053197;28;20224;-67
2022/10/02 01:22:58;;;;;;;0.93;0.50;;;17.10;76.00;;;;;;5035401;28;20186;-67
2022/10/02 01:25:24;;;;;;;1.45;0.73;;;17.10;76.10;;;;;;5035245;28;20190;-67
2022/10/02 01:27:51;;;;;;;1.75;0.70;;;17.00;75.90;;;;;;5053000;28;20273;-66
2022/10/02 01:30:19;;;;;;;1.20;0.80;;;17.10;76.00;;;;;;5035325;28;20190;-67
2022/10/02 01:32:53;;;;;;;0.98;0.52;;;17.10;76.10;;;;;;5035231;28;20190;-67
2022/10/02 01:35:25;;;;;;;1.20;0.70;;;17.00;76.00;;;;;;5034907;28;20182;-67
2022/10/02 01:37:54;;;;;;;1.48;0.93;;;17.10;76.00;;;;;;5052870;28;20206;-67
2022/10/02 01:40:36;;;;;;;1.00;0.60;;;17.10;76.00;;;;;;5034980;28;20294;-67
2022/10/02 01:43:16;;;;;;;0.70;0.65;;;17.10;76.10;;;;;;5049306;28;20174;-67
2022/10/02 01:45:54;;;;;;;1.65;0.70;;;17.00;76.00;;;;;;5034882;28;20183;-67
2022/10/02 01:48:45;;;;;;;1.25;0.50;;;17.00;76.00;;;;;;5035138;28;20301;-67
2022/10/02 01:51:40;;;;;;;0.68;0.68;;;17.00;76.00;;;;;;5035298;28;20193;-67
2022/10/02 01:54:21;;;;;;;0.93;0.80;;;17.00;76.00;;;;;;5051389;28;20175;-67
2022/10/02 01:57:09;;;;;;;1.13;0.60;;;17.10;76.10;;;;;;5051650;28;20189;-67
2022/10/02 02:00:03;;;;;;;1.23;0.70;;;17.00;76.00;;;;;;5051535;28;20214;-67
2022/10/02 02:03:01;;;;;;;1.30;0.57;;;17.00;76.10;;;;;;5051497;28;20159;-67
2022/10/02 02:05:54;;;;;;;1.52;0.88;;;17.10;76.20;;;;;;5034435;28;20178;-67
2022/10/02 02:08:55;;;;;;;1.60;0.70;;;17.10;76.20;;;;;;5080293;22;20234;-66
2022/10/02 02:11:22;;;;;;;0.57;0.50;;;17.10;76.10;;;;;;5034552;28;20241;-67
2022/10/02 02:14:23;;;;;;;1.15;0.98;;;17.00;76.10;;;;;;5034274;28;20206;-66
2022/10/02 02:16:57;;;;;;;2.13;0.90;;;17.10;76.20;;;;;;5034349;28;20705;-66
2022/10/02 02:19:41;;;;;;;0.80;0.70;;;17.10;76.10;;;;;;5051248;28;20210;-67
2022/10/02 02:22:22;;;;;;;0.80;0.45;;;17.10;76.20;;;;;;5054819;28;20215;-67
2022/10/02 02:25:10;;;;;;;1.25;0.63;;;17.10;76.10;;;;;;5085915;28;20197;-67
2022/10/02 02:27:49;;;;;;;0.98;0.68;;;17.10;76.20;;;;;;5072018;28;20243;-67
2022/10/02 02:30:18;;;;;;;0.93;0.65;;;17.00;76.10;;;;;;5049353;28;20256;-66
2022/10/02 02:33:00;;;;;;;0.75;0.50;;;17.00;76.10;;;;;;5057812;28;20210;-67
2022/10/02 02:35:39;;;;;;;0.90;0.52;;;17.10;76.20;;;;;;5050884;28;20182;-67
2022/10/02 02:38:17;;;;;;;0.90;0.70;;;17.10;76.20;;;;;;5034129;28;20221;-66
2022/10/02 02:40:46;;;;;;;0.57;0.57;;;17.10;76.20;;;;;;5050858;28;20241;-66
2022/10/02 02:43:23;;;;;;;0.75;0.70;;;17.10;76.20;;;;;;5067839;28;20182;-67
2022/10/02 02:45:58;;;;;;;1.52;0.90;;;17.10;76.20;;;;;;5067555;28;20178;-67
2022/10/02 02:48:40;;;;;;;1.55;0.70;;;17.10;76.20;;;;;;5052226;28;20693;-66
2022/10/02 02:51:22;;;;;;;1.83;0.70;;;17.10;76.30;;;;;;5067424;28;20642;-67
2022/10/02 02:53:58;;;;;;;0.75;0.65;;;17.10;76.30;;;;;;5051780;28;20171;-66
2022/10/02 02:56:28;;;;;;;1.85;0.85;;;17.00;76.10;;;;;;5050951;28;20194;-67
2022/10/02 02:59:08;;;;;;;0.70;0.60;;;17.00;76.20;;;;;;5051833;28;20221;-67
2022/10/02 03:01:34;;;;;;;0.85;0.68;;;17.10;76.30;;;;;;5067337;28;20226;-67
2022/10/02 03:04:01;;;;;;;0.95;0.63;;;17.10;76.40;;;;;;5067299;28;20214;-66
2022/10/02 03:06:36;;;;;;;1.38;0.80;;;17.10;76.30;;;;;;5067071;28;20217;-67
2022/10/02 03:09:07;;;;;;;1.00;0.70;;;17.10;76.40;;;;;;5034094;28;20289;-66
2022/10/02 03:11:50;;;;;;;1.48;0.70;;;17.10;76.40;;;;;;5067499;28;20171;-67
2022/10/02 03:14:39;;;;;;;1.50;0.60;;;17.00;76.30;;;;;;5050375;28;20177;-66
2022/10/02 03:17:31;;;;;;;2.20;0.80;;;17.00;76.20;;;;;;5066398;28;20217;-66
2022/10/02 03:20:25;;;;;;;2.00;0.95;;;17.10;76.30;;;;;;5033871;28;20234;-67
2022/10/02 03:23:26;;;;;;;0.77;0.60;;;17.10;76.40;;;;;;5050370;28;20198;-67
2022/10/02 03:26:08;;;;;;;0.98;0.63;;;17.10;76.30;;;;;;5051580;28;20165;-67
2022/10/02 03:28:56;;;;;;;1.17;0.70;;;17.10;76.40;;;;;;5054047;28;20272;-67
2022/10/02 03:31:26;;;;;;;1.33;0.70;;;17.10;76.40;;;;;;5070623;28;20218;-67
2022/10/02 03:33:53;;;;;;;1.23;0.70;;;17.10;76.40;;;;;;5070399;28;20189;-66
2022/10/02 03:36:21;;;;;;;0.98;0.52;;;17.10;76.40;;;;;;5070998;28;20225;-67
2022/10/02 03:38:48;;;;;;;1.55;0.60;;;17.10;76.40;;;;;;5050435;28;20254;-67
2022/10/02 03:41:14;;;;;;;0.65;0.60;;;17.00;76.30;;;;;;5017283;28;20207;-66
2022/10/02 03:43:39;;;;;;;1.55;0.70;;;17.10;76.40;;;;;;5017235;28;20245;-66
2022/10/02 03:46:05;;;;;;;1.00;0.85;;;17.10;76.30;;;;;;5017296;28;20183;-67
2022/10/02 03:48:31;;;;;;;1.05;0.70;;;17.10;76.40;;;;;;5034967;28;20199;-68
2022/10/02 03:50:57;;;;;;;1.10;0.80;;;17.10;76.40;;;;;;5034057;28;20183;-67
2022/10/02 03:53:33;;;;;;;0.63;0.47;;;17.10;76.40;;;;;;5017122;28;20278;-67
2022/10/02 03:56:39;;;;;;;1.23;0.50;;;17.00;76.30;;;;;;5017175;28;20187;-67
2022/10/02 03:59:16;;;;;;;1.25;0.68;;;17.00;76.30;;;;;;5033443;28;20211;-67
2022/10/02 04:01:50;;;;;;;2.75;0.80;;;17.10;76.40;;;;;;5033543;28;20187;-67
2022/10/02 04:04:41;;;;;;;0.98;0.75;;;17.00;76.30;;;;;;5033383;28;20206;-67
2022/10/02 04:07:16;;;;;;;1.20;0.70;;;17.00;76.40;;;;;;5016834;28;20183;-67
2022/10/02 04:10:02;;;;;;;1.45;0.55;;;17.10;76.40;;;;;;5033694;28;20183;-67
2022/10/02 04:12:39;;;;;;;0.70;0.60;;;17.10;76.50;;;;;;5034558;28;20175;-67
2022/10/02 04:15:34;;;;;;;1.45;0.55;;;17.00;76.30;;;;;;5033021;28;20232;-66
2022/10/02 04:18:26;;;;;;;1.02;0.82;;;17.10;76.40;;;;;;5016958;28;20207;-66
2022/10/02 04:21:00;;;;;;;1.08;0.60;;;17.10;76.50;;;;;;5033464;28;20305;-67
2022/10/02 04:23:36;;;;;;;1.35;0.80;;;17.10;76.40;;;;;;5016606;28;20195;-67
2022/10/02 04:26:16;;;;;;;1.00;0.60;;;17.10;76.40;;;;;;5033285;28;20175;-67
2022/10/02 04:28:54;;;;;;;0.95;0.68;;;17.00;76.30;;;;;;5033213;28;20207;-66
2022/10/02 04:31:20;;;;;;;1.20;0.60;;;17.10;76.40;;;;;;5034082;28;20176;-67
2022/10/02 04:33:45;;;;;;;1.15;0.70;;;17.10;76.40;;;;;;5016219;28;20179;-66
2022/10/02 04:36:29;;;;;;;1.60;0.80;;;17.10;76.50;;;;;;5016428;28;20203;-67
2022/10/02 04:40:06;;;;;;;1.83;0.75;;;17.10;76.40;;;;;;5033982;28;20215;-67
2022/10/02 04:42:40;;;;;;;0.95;0.82;;;17.00;76.30;;;;;;4958319;28;20308;-67
2022/10/02 04:45:36;;;;;;;1.20;0.60;;;17.10;76.50;;;;;;4956552;28;20208;-67
2022/10/02 04:48:39;;;;;;;1.20;0.60;;;17.10;76.40;;;;;;4981036;28;20210;-67
2022/10/02 04:51:56;;;;;;;0.60;0.60;;;17.10;76.50;;;;;;5052440;28;20675;-67
2022/10/02 04:55:01;;;;;;;0.90;0.70;;;17.10;76.50;;;;;;5035924;28;20239;-66
2022/10/02 04:58:17;;;;;;;0.77;0.68;;;17.10;76.50;;;;;;5052257;28;20248;-67
2022/10/02 05:01:19;;;;;;;0.95;0.65;;;17.10;76.50;;;;;;5052580;28;20231;-67
2022/10/02 05:04:09;;;;;;;0.60;0.50;;;17.10;76.60;;;;;;5035808;28;20182;-66
2022/10/02 05:07:11;;;;;;;1.15;0.50;;;17.10;76.40;;;;;;5052390;28;20206;-67
2022/10/02 05:10:03;;;;;;;0.75;0.70;;;17.10;76.50;;;;;;5051780;28;20197;-67
2022/10/02 05:12:55;;;;;;;0.55;0.47;;;17.10;76.60;;;;;;5052190;28;20171;-67
2022/10/02 05:15:58;;;;;;;0.60;0.60;;;17.10;76.50;;;;;;5051875;28;20190;-67
2022/10/02 05:19:14;;;;;;;1.10;0.70;;;17.10;76.50;;;;;;5052027;28;20210;-66
2022/10/02 05:22:23;;;;;;;1.20;0.75;;;17.10;76.50;;;;;;5052115;28;20202;-67
2022/10/02 05:25:05;;;;;;;0.93;0.57;;;17.10;76.50;;;;;;5068535;28;20175;-66
2022/10/02 05:28:06;;;;;;;0.90;0.60;;;17.10;76.60;;;;;;5035514;28;20294;-67
2022/10/02 05:30:53;;;;;;;0.77;0.60;;;17.10;76.50;;;;;;5053123;28;20166;-67
2022/10/02 05:33:31;;;;;;;0.82;0.82;;;17.10;76.60;;;;;;5051855;28;20175;-67
2022/10/02 05:36:44;;;;;;;0.82;0.60;;;17.10;76.60;;;;;;5051416;28;20182;-67
2022/10/02 05:39:27;;;;;;;0.80;0.80;;;17.10;76.60;;;;;;5051877;28;20198;-67
2022/10/02 05:42:23;;;;;;;1.33;0.60;;;17.10;76.50;;;;;;5035414;28;20183;-67
2022/10/02 05:45:04;;;;;;;1.75;0.65;;;17.10;76.60;;;;;;5052858;28;20234;-67
2022/10/02 05:47:38;;;;;;;1.73;0.80;;;17.10;76.60;;;;;;5052713;28;20198;-67
2022/10/02 05:50:18;;;;;;;1.63;0.52;;;17.00;76.40;;;;;;5034374;28;20273;-67
2022/10/02 05:52:56;;;;;;;0.93;0.52;;;17.10;76.60;;;;;;5051460;28;20180;-67
2022/10/02 05:55:32;;;;;;;1.25;0.60;;;17.00;76.50;;;;;;5051502;28;20193;-67
2022/10/02 05:58:14;;;;;;;1.40;0.82;;;17.10;76.60;;;;;;5034902;28;20259;-66
2022/10/02 06:00:55;;;;;;;1.30;0.98;;;17.10;76.60;;;;;;5068040;28;20351;-67
2022/10/02 06:03:40;;;;;;;1.20;1.00;;;17.10;76.60;;;;;;5051673;28;20179;-67
2022/10/02 06:06:15;;;;;;;1.08;0.93;;;17.10;76.60;;;;;;5067792;28;20650;-67
2022/10/02 06:09:04;;;;;;;1.20;0.98;;;17.10;76.70;;;;;;5034486;28;20217;-67
2022/10/02 06:11:39;;;;;;;1.17;1.00;;;17.10;76.70;;;;;;5034075;28;20241;-66
2022/10/02 06:14:32;;;;;;;1.08;0.90;;;17.10;76.60;;;;;;5030722;28;20191;-67
2022/10/02 06:17:26;;;;;;;1.23;1.13;;;17.00;76.50;;;;;;5037256;28;20209;-68
2022/10/02 06:20:33;;;;;;;0.82;0.82;;;17.10;76.50;;;;;;5043547;28;20252;-67
2022/10/02 06:23:28;;;;;;;1.30;0.90;;;17.00;76.50;;;;;;5055160;28;20274;-67
2022/10/02 06:26:05;;;;;;;1.88;1.20;;;17.10;76.70;;;;;;5031195;28;20182;-67
2022/10/02 06:29:02;;;;;;;1.40;0.90;;;17.00;76.60;;;;;;5014783;28;20195;-67
2022/10/02 06:31:52;;;;;;;1.13;0.98;;;17.10;76.60;;;;;;5041503;28;20186;-67
2022/10/02 06:34:18;;;;;;;1.73;0.90;;;17.10;76.70;;;;;;5034099;28;20187;-67
2022/10/02 06:37:06;;;;;;;1.67;1.08;;;17.10;76.60;;;;;;5034368;28;20187;-67
2022/10/02 06:39:40;;;;;;;1.20;0.90;;;17.10;76.60;;;;;;5048113;28;20234;-66
2022/10/02 06:42:33;;;;;;;1.17;1.00;;;17.10;76.50;;;;;;5052072;28;20185;-67
2022/10/02 06:45:11;;;;;;;1.30;0.77;;;17.10;76.60;;;;;;5030817;28;20274;-67
2022/10/02 06:48:22;;;;;;;1.88;1.23;;;17.00;76.50;;;;;;5014580;28;20203;-66
2022/10/02 06:51:34;;;;;;;1.15;0.93;;;17.00;76.50;;;;;;5033510;28;20265;-67
2022/10/02 06:54:37;;;;;;;1.90;0.80;;;17.10;76.60;;;;;;5028143;28;20253;-66
2022/10/02 06:57:12;;;;;;;1.83;1.10;;;17.00;76.50;;;;;;5030567;28;20225;-67
2022/10/02 06:59:59;;;;;;;2.03;0.90;;;17.10;76.60;;;;;;5030866;28;20203;-67
2022/10/02 07:03:02;;;;;;;0.80;0.80;;;17.10;76.60;;;;;;5036002;28;20168;-67
2022/10/02 07:05:52;;;;;;;1.65;1.00;;;17.10;76.60;;;;;;5034574;28;20187;-67
2022/10/02 07:08:57;;;;;;;0.93;0.70;;;17.10;76.60;;;;;;5034580;28;20215;-67
2022/10/02 07:11:44;;;;;;;0.93;0.75;;;17.10;76.70;;;;;;5034470;28;20194;-67
2022/10/02 07:14:59;;;;;;;1.85;1.15;;;17.10;76.70;;;;;;5035336;28;20184;-67
2022/10/02 07:17:33;;;;;;;1.13;0.85;;;17.10;76.70;;;;;;5017979;28;20241;-66
2022/10/02 07:20:32;;;;;;;1.10;1.00;;;17.10;76.50;;;;;;5034316;28;20239;-67
2022/10/02 07:23:32;;;;;;;1.38;0.95;;;17.10;76.60;;;;;;5017700;28;20647;-67
2022/10/02 07:25:58;;;;;;;1.67;0.90;;;17.10;76.60;;;;;;5034253;28;20188;-67
2022/10/02 07:28:56;;;;;;;0.95;0.80;;;17.10;76.70;;;;;;5017664;28;20207;-67
2022/10/02 07:32:25;;;;;;;1.77;0.90;;;17.10;76.50;;;;;;5034071;28;20266;-67
2022/10/02 07:35:27;;;;;;;2.13;1.20;;;17.10;76.70;;;;;;5016912;28;20253;-67
2022/10/02 07:38:10;;;;;;;2.72;0.90;;;17.10;76.70;;;;;;5017827;28;20210;-67
2022/10/02 07:41:12;;;;;;;1.15;0.98;;;17.10;76.80;;;;;;5035135;28;20202;-67
2022/10/02 07:44:18;;;;;;;1.08;0.82;;;17.10;76.70;;;;;;5035514;28;20261;-67
2022/10/02 07:46:55;;;;;;;1.17;0.95;;;17.10;76.70;;;;;;5017663;28;20187;-67
2022/10/02 07:49:54;;;;;;;1.05;0.80;;;17.10;76.70;;;;;;5033850;28;20210;-67
2022/10/02 07:52:55;;;;;;;1.45;1.05;;;17.10;76.80;;;;;;5033905;28;20175;-67
2022/10/02 07:55:24;;;;;;;1.50;0.90;;;17.10;76.80;;;;;;5016974;28;20203;-67
2022/10/02 07:58:01;;;;;;;1.65;0.90;;;17.20;77.00;;;;;;5034802;28;20210;-67
2022/10/02 08:00:36;;;;;;;0.85;0.80;;;17.20;77.00;;;;;;5033845;28;20191;-67
2022/10/02 08:03:15;;;;;;;1.50;1.05;;;17.20;77.00;;;;;;5033885;28;20215;-66
2022/10/02 08:05:49;;;;;;;1.77;1.02;;;17.20;77.10;;;;;;5033324;28;20265;-67
2022/10/02 08:08:44;;;;;;;1.90;1.02;;;17.20;77.30;;;;;;5018092;28;20210;-67
2022/10/02 08:11:20;;;;;;;1.45;0.90;;;17.20;77.30;;;;;;5033170;28;20241;-67
2022/10/02 08:14:04;;;;;;;0.80;0.77;;;17.20;77.20;;;;;;5033303;28;20191;-67
2022/10/02 08:16:39;;;;;;;1.50;0.98;;;17.20;77.40;;;;;;5017059;28;20191;-67
2022/10/02 08:19:17;;;;;;;1.48;0.88;;;17.20;77.10;;;;;;5017113;28;20209;-67
2022/10/02 08:21:54;;;;;;;1.58;0.90;;;17.20;77.10;;;;;;5016958;28;20206;-67
2022/10/02 08:24:30;;;;;;;1.25;0.90;;;17.20;77.20;;;;;;5033177;28;20285;-67
2022/10/02 08:27:11;;;;;;;1.30;1.20;;;17.20;77.00;;;;;;5033210;28;20186;-69
2022/10/02 08:29:51;;;;;;;0.95;0.73;;;17.30;77.40;;;;;;5033312;28;20305;-69
2022/10/02 08:32:17;;;;;;;2.17;0.95;;;17.20;78.20;;;;;;5033039;28;20163;-69
2022/10/02 08:34:43;;;;;;;2.15;0.90;;;17.20;77.50;;;;;;5022273;28;20624;-69
2022/10/02 08:37:28;;;;;;;0.77;0.70;;;17.30;78.00;;;;;;5052518;28;20182;-69
2022/10/02 08:40:28;;;;;;;1.05;0.82;;;17.30;77.70;;;;;;5035683;28;20214;-68
2022/10/02 08:43:22;;;;;;;1.40;0.85;;;17.30;77.40;;;;;;5052594;28;20281;-68
2022/10/02 08:46:02;;;;;;;1.25;0.80;;;17.30;77.40;;;;;;5052440;28;20194;-69
2022/10/02 08:48:55;;;;;;;1.55;0.98;;;17.30;77.50;;;;;;5069131;28;20268;-68
2022/10/02 08:52:15;;;;;;;1.20;0.90;;;17.30;77.50;;;;;;5052355;28;20175;-67
2022/10/02 08:55:11;;;;;;;1.77;0.85;;;17.30;77.80;;;;;;5035895;28;20206;-69
2022/10/02 08:58:42;;;;;;;0.77;0.75;;;17.30;77.80;;;;;;5069082;28;20309;-68
2022/10/02 09:02:26;;;;;;;0.93;0.73;;;17.30;77.80;;;;;;5068936;28;20293;-68
2022/10/02 09:05:19;;;;;;;1.58;0.82;;;17.30;77.80;;;;;;5032762;28;20210;-68
2022/10/02 09:08:25;;;;;;;0.82;0.75;;;17.30;78.10;;;;;;5051959;28;20232;-68
2022/10/02 09:11:38;;;;;;;1.52;1.00;;;17.30;78.30;;;;;;5052147;28;20178;-68
2022/10/02 09:14:24;;;;;;;0.95;0.80;;;17.40;78.60;;;;;;5068498;28;20183;-67
2022/10/02 09:17:06;;;;;;;1.85;0.77;;;17.40;78.40;;;;;;5068523;28;20244;-68
2022/10/02 09:20:21;;;;;;;1.70;0.80;;;17.30;78.40;;;;;;5053028;28;20258;-68
2022/10/02 09:23:27;;;;;;;0.80;0.75;;;17.30;78.80;;;;;;5048573;28;20245;-68
2022/10/02 09:26:59;;;;;;;1.13;0.80;;;17.30;78.70;;;;;;5030159;28;20180;-68
2022/10/02 09:29:48;;;;;;;2.72;0.95;;;17.40;78.80;;;;;;5018901;28;20249;-68
2022/10/02 09:33:05;;;;;;;0.70;0.65;;;17.40;79.10;;;;;;5031593;28;20171;-68
2022/10/02 09:36:08;;;;;;;1.13;0.65;;;17.30;79.00;;;;;;5031951;28;20159;-69
2022/10/02 09:38:56;;;;;;;2.28;0.90;;;17.30;79.30;;;;;;5018109;28;20207;-69
2022/10/02 09:41:57;;;;;;;1.42;0.90;;;17.30;79.40;;;;;;5032883;28;20204;-69
2022/10/02 09:44:57;;;;;;;0.93;0.77;;;17.40;79.30;;;;;;5015020;28;20251;-69
2022/10/02 09:48:19;;;;;;;1.65;0.90;;;17.40;79.50;;;;;;5032655;28;20215;-68
2022/10/02 09:50:56;;;;;;;1.65;0.90;;;17.40;80.00;;;;;;5031436;28;20194;-68
2022/10/02 09:53:59;;;;;;;0.82;0.73;;;17.40;79.60;;;;;;5031685;28;20187;-68
2022/10/02 09:57:19;;;;;;;1.15;0.88;;;17.40;79.70;;;;;;5022677;28;20193;-67
2022/10/02 10:00:03;;;;;;;0.73;0.50;;;17.40;79.60;;;;;;4999831;28;20223;-68
2022/10/02 10:03:11;;;;;;;1.08;0.70;;;17.40;80.20;;;;;;5050365;28;20248;-68
2022/10/02 10:05:49;;;;;;;1.52;0.75;;;17.40;80.20;;;;;;5051060;28;20183;-70
2022/10/02 10:08:30;;;;;;;0.70;0.68;;;17.40;80.40;;;;;;5034692;28;20217;-68
2022/10/02 10:11:28;;;;;;;1.40;0.82;;;17.40;80.50;;;;;;5051228;28;20216;-68
2022/10/02 10:14:32;;;;;;;0.70;0.63;;;17.40;80.60;;;;;;5034870;28;20710;-68
2022/10/02 10:17:29;;;;;;;1.02;0.65;;;17.40;80.80;;;;;;5048545;28;20248;-68
2022/10/02 10:20:50;;;;;;;0.70;0.65;;;17.40;81.30;;;;;;5047599;28;20215;-68
2022/10/02 10:23:49;;;;;;;1.02;0.57;;;17.40;80.80;;;;;;5047534;28;20179;-68
2022/10/02 10:26:42;;;;;;;0.63;0.50;;;17.40;80.80;;;;;;5047636;28;20175;-68
2022/10/02 10:29:30;;;;;;;1.08;0.73;;;17.50;81.10;;;;;;5030857;28;20202;-68
2022/10/02 10:32:37;;;;;;;0.98;0.80;;;17.50;81.30;;;;;;5031319;28;20187;-68
2022/10/02 10:35:18;;;;;;;0.98;0.73;;;17.50;81.10;;;;;;5051858;28;20328;-68
2022/10/02 10:41:32;;;;;;;0.70;0.70;;;17.50;81.00;;;;;;5049277;28;20305;-68
2022/10/02 10:44:29;;;;;;;1.45;0.90;;;17.50;81.10;;;;;;5034991;28;20673;-67
2022/10/02 10:47:28;;;;;;;1.55;0.68;;;17.50;81.20;;;;;;5036414;28;20178;-68
2022/10/02 10:50:07;;;;;;;0.75;0.63;;;17.50;81.90;;;;;;5021934;28;20262;-68
2022/10/02 10:53:13;;;;;;;1.23;0.65;;;17.50;82.00;;;;;;5021664;28;20189;-68
2022/10/02 10:56:20;;;;;;;2.08;0.73;;;17.50;81.90;;;;;;5034844;28;20186;-68
2022/10/02 10:59:26;;;;;;;1.85;1.17;;;17.50;81.90;;;;;;5053926;28;20214;-66
2022/10/02 11:02:38;;;;;;;1.60;0.70;;;17.50;81.40;;;;;;5036275;28;20201;-68
2022/10/02 11:06:01;;;;;;;1.50;0.73;;;17.50;81.80;;;;;;5029988;28;20685;-68
2022/10/02 11:09:04;;;;;;;1.05;0.90;;;17.50;81.80;;;;;;5054680;28;20344;-68
2022/10/02 11:11:58;;;;;;;2.72;0.90;;;17.50;81.30;;;;;;5054876;28;20188;-68
2022/10/02 11:14:42;;;;;;;1.25;0.70;;;17.50;81.90;;;;;;5040912;28;20178;-67
2022/10/02 11:17:59;;;;;;;1.17;0.85;;;17.50;81.90;;;;;;5034471;28;20187;-67
2022/10/02 11:20:54;;;;;;;2.63;0.90;;;17.50;81.90;;;;;;5004455;28;20219;-69
2022/10/02 11:23:45;;;;;;;2.80;0.85;;;17.50;81.90;;;;;;5034202;28;20274;-69
2022/10/02 11:26:47;;;;;;;1.05;0.75;;;17.50;81.90;;;;;;5017380;28;20233;-69
2022/10/02 11:29:45;;;;;;;2.05;0.90;;;17.60;82.00;;;;;;5034152;28;20207;-69
2022/10/02 11:32:50;;;;;;;1.02;0.75;;;17.50;82.60;;;;;;5017584;28;20199;-69
2022/10/02 11:35:20;;;;;;;2.90;0.82;;;17.60;82.00;;;;;;5017474;28;20187;-68
2022/10/02 11:38:22;;;;;;;2.15;0.80;;;17.60;82.00;;;;;;5034091;28;20203;-68
2022/10/02 11:41:21;;;;;;;2.05;0.80;;;17.60;82.00;;;;;;5017853;28;20229;-69
2022/10/02 11:44:04;;;;;;;2.10;0.73;;;17.60;82.00;;;;;;5033915;28;20253;-69
2022/10/02 11:46:57;;;;;;;3.17;0.88;;;17.60;82.00;;;;;;5033087;28;20623;-68
2022/10/02 11:50:03;;;;;;;3.92;0.95;;;17.60;82.00;;;;;;5016798;28;20207;-69
2022/10/02 11:52:47;;;;;;;3.33;0.73;;;17.60;82.00;;;;;;5033414;28;20329;-69
2022/10/02 11:55:45;;;;;;;1.23;0.65;;;17.60;81.90;;;;;;5036506;28;20607;-69
2022/10/02 11:58:25;;;;;;;2.22;0.70;;;17.60;82.20;;;;;;5028232;28;20208;-69
2022/10/02 12:01:13;;;;;;;1.35;0.90;;;17.60;82.40;;;;;;5047557;28;20743;-69
2022/10/02 12:03:53;;;;;;;3.30;0.77;;;17.60;82.20;;;;;;5043529;28;20195;-68
2022/10/02 12:06:51;;;;;;;1.52;0.70;;;17.60;82.60;;;;;;5048839;28;20182;-69
2022/10/02 12:09:55;;;;;;;1.35;0.90;;;17.60;82.50;;;;;;5064819;28;20218;-68
2022/10/02 12:12:50;;;;;;;1.85;0.80;;;17.50;83.20;;;;;;5042153;28;20203;-68
2022/10/02 12:15:40;;;;;;;1.90;0.50;;;17.60;83.00;;;;;;5033282;28;20175;-68
2022/10/02 12:18:22;;;;;;;1.42;0.65;;;17.60;82.90;;;;;;5027776;28;20206;-69
2022/10/02 12:27:11;;;;;;;1.67;0.70;;;17.60;83.00;;;;;;5052724;28;20197;-69
2022/10/02 12:30:01;;;;;;;2.22;0.90;;;17.60;82.90;;;;;;5053837;28;20187;-69
2022/10/02 12:32:36;;;;;;;2.30;0.80;;;17.60;82.90;;;;;;5053618;28;20187;-69
2022/10/02 12:35:52;;;;;;;2.45;0.80;;;17.60;82.60;;;;;;5065492;28;20182;-69
2022/10/02 12:39:02;;;;;;;1.52;0.77;;;17.60;83.10;;;;;;5051651;28;20226;-68
2022/10/02 12:42:02;;;;;;;2.08;0.77;;;17.60;83.10;;;;;;5052147;28;20723;-69
2022/10/02 12:45:04;;;;;;;3.63;1.00;;;17.60;83.40;;;;;;5053321;28;20229;-68
2022/10/02 12:47:47;;;;;;;2.22;0.90;;;17.60;82.80;;;;;;5035357;28;20205;-68
2022/10/02 12:51:00;;;;;;;1.55;1.00;;;17.60;83.80;;;;;;5052077;28;20190;-69
2022/10/02 12:54:16;;;;;;;3.67;0.80;;;17.60;83.60;;;;;;5035724;28;20243;-69
2022/10/02 12:57:09;;;;;;;1.95;0.70;;;17.60;84.00;;;;;;5051661;28;20187;-69
2022/10/02 13:00:01;;;;;;;1.75;0.82;;;17.60;84.60;;;;;;5035615;28;20190;-69
2022/10/02 13:03:08;;;;;;;1.40;0.85;;;17.60;84.10;;;;;;5051733;28;20187;-69
2022/10/02 13:05:52;;;;;;;1.08;0.88;;;17.50;84.00;;;;;;5051475;28;20280;-68
2022/10/02 13:08:47;;;;;;;2.30;0.90;;;17.60;84.70;;;;;;5068065;28;20218;-69
2022/10/02 13:11:39;;;;;;;1.50;0.73;;;17.60;84.80;;;;;;5035126;28;20182;-69
2022/10/02 13:15:00;;;;;;;1.40;0.60;;;17.60;84.60;;;;;;5051410;28;20183;-68
2022/10/02 13:17:46;;;;;;;2.08;0.90;;;17.60;85.10;;;;;;5052678;28;20244;-69
2022/10/02 13:20:42;;;;;;;2.03;0.80;;;17.60;85.20;;;;;;5051291;28;20281;-68
2022/10/02 13:23:42;;;;;;;1.20;1.00;;;17.60;84.90;;;;;;5064785;28;20564;-71
2022/10/02 13:26:28;;;;;;;1.45;0.68;;;17.50;84.30;;;;;;5051128;28;20257;-69
2022/10/02 13:29:24;;;;;;;0.95;0.63;;;17.60;84.90;;;;;;5067805;28;20693;-69
2022/10/02 13:31:55;;;;;;;10.27;0.90;;;17.60;85.40;;;;;;5051383;28;20220;-69
2022/10/02 13:34:53;;;;;;;5.15;1.00;;;17.50;85.60;;;;;;5067547;28;20243;-69
2022/10/02 13:38:13;;;;;;;2.30;0.95;;;17.60;84.80;;;;;;5067874;28;20251;-69
2022/10/02 13:41:13;;;;;;;2.67;1.00;;;17.60;84.80;;;;;;5013125;28;20219;-69
2022/10/02 13:43:49;;;;;;;1.48;0.68;;;17.60;85.30;;;;;;5013714;28;20262;-69
2022/10/02 13:46:59;;;;;;;1.73;0.60;;;17.60;85.20;;;;;;5024625;28;20293;-69
2022/10/02 13:49:52;;;;;;;1.02;0.45;;;17.60;84.80;;;;;;5050759;28;20209;-69
2022/10/02 13:52:51;;;;;;;2.05;1.15;;;17.60;84.90;;;;;;5034085;28;20182;-69
2022/10/02 13:55:24;;;;;;;1.90;0.80;;;17.60;85.20;;;;;;5050594;28;20194;-69
2022/10/02 13:58:41;;;;;;;2.22;0.98;;;17.60;85.10;;;;;;5067598;28;20224;-69
2022/10/02 14:01:28;;;;;;;2.70;1.02;;;17.60;84.80;;;;;;5039718;28;20233;-68
2022/10/02 14:04:22;;;;;;;1.02;0.60;;;17.60;84.80;;;;;;5034110;28;20212;-69
2022/10/02 14:07:16;;;;;;;2.88;0.80;;;17.60;85.30;;;;;;5067314;28;20317;-69
2022/10/02 14:10:18;;;;;;;1.33;0.55;;;17.60;85.20;;;;;;5051340;28;20277;-68
2022/10/02 14:13:20;;;;;;;1.55;0.80;;;17.60;84.70;;;;;;5067552;28;20214;-69
2022/10/02 14:16:27;;;;;;;1.67;0.80;;;17.60;84.80;;;;;;5065985;28;20194;-68
2022/10/02 14:19:51;;;;;;;1.83;0.65;;;17.50;84.70;;;;;;5067257;28;20206;-68
2022/10/02 14:22:58;;;;;;;1.63;0.68;;;17.60;84.50;;;;;;5067117;28;20194;-69
2022/10/02 14:25:44;;;;;;;3.50;0.93;;;17.60;84.70;;;;;;5063572;28;20191;-68
2022/10/02 14:28:21;;;;;;;1.52;0.70;;;17.50;84.70;;;;;;5051569;28;20252;-69
2022/10/02 14:31:11;;;;;;;1.45;0.70;;;17.60;84.50;;;;;;5050249;28;20190;-69
2022/10/02 14:34:12;;;;;;;1.80;0.55;;;17.60;84.30;;;;;;5050240;28;20190;-69
2022/10/02 14:36:54;;;;;;;1.27;0.73;;;17.50;84.20;;;;;;5067054;28;20182;-69
2022/10/02 14:39:40;;;;;;;1.15;0.68;;;17.60;84.30;;;;;;5066867;28;20202;-68
2022/10/02 14:42:31;;;;;;;2.20;1.00;;;17.50;84.30;;;;;;5066820;28;20190;-69
2022/10/02 14:44:57;;;;;;;1.42;0.65;;;17.60;84.30;;;;;;5050060;28;20248;-68
2022/10/02 14:47:28;;;;;;;1.20;0.70;;;17.60;84.10;;;;;;5049838;28;20190;-69
2022/10/02 14:50:19;;;;;;;1.30;0.50;;;17.50;84.10;;;;;;5067149;28;20210;-69
2022/10/02 14:53:24;;;;;;;0.88;0.60;;;17.60;84.30;;;;;;5050373;28;20615;-69
2022/10/02 14:56:02;;;;;;;1.05;0.60;;;17.60;84.30;;;;;;5050154;28;20186;-68